Time;durP1;ratioP1;P1;durP2;ratioP2;P2;SDS_P1;SDS_P2;PMS_P1;PMS_P2;Temp;Humidity;BMP_temperature;BMP_pressure;BME280_temperature;BME280_humidity;BME280_pressure;Samples;Min_cycle;Max_cycle;Signal;HPM_P1;HPM_P2
2022/11/13 00:00:11;;;;;;;;;;;14.30;99.90;;;;;;5096213;28;20356;-75
2022/11/13 00:02:36;;;;;;;;;;;14.30;99.90;;;;;;5096081;28;19948;-74
2022/11/13 00:05:02;;;;;;;;;;;14.20;99.90;;;;;;5093701;28;19967;-75
2022/11/13 00:07:28;;;;;;;;;;;14.30;99.90;;;;;;5092679;28;19912;-76
2022/11/13 00:09:53;;;;;;;;;;;14.20;99.90;;;;;;5094664;28;19960;-75
2022/11/13 00:12:19;;;;;;;;;;;14.20;99.90;;;;;;5093988;28;20273;-76
2022/11/13 00:14:44;;;;;;;;;;;14.20;99.90;;;;;;5094026;28;19923;-76
2022/11/13 00:17:10;;;;;;;;;;;14.20;99.90;;;;;;5094120;28;20258;-76
2022/11/13 00:19:35;;;;;;;;;;;14.20;99.90;;;;;;5093737;28;20361;-76
2022/11/13 00:22:01;;;;;;;;;;;14.20;99.90;;;;;;5093480;28;19916;-76
2022/11/13 00:24:27;;;;;;;;;;;14.20;99.90;;;;;;5093430;28;20335;-76
2022/11/13 00:26:52;;;;;;;;;;;14.10;99.90;;;;;;5094124;28;19919;-75
2022/11/13 00:29:18;;;;;;;;;;;14.10;99.90;;;;;;5093533;28;19943;-75
2022/11/13 00:31:43;;;;;;;;;;;14.10;99.90;;;;;;5093901;28;19908;-75
2022/11/13 00:34:09;;;;;;;;;;;14.00;99.90;;;;;;5094430;28;20288;-75
2022/11/13 00:36:35;;;;;;;;;;;14.00;99.90;;;;;;5093473;28;19914;-75
2022/11/13 00:39:01;;;;;;;;;;;14.00;99.90;;;;;;5093412;28;20322;-75
2022/11/13 00:41:26;;;;;;;;;;;14.00;99.90;;;;;;5093777;28;19915;-75
2022/11/13 00:43:52;;;;;;;;;;;14.00;99.90;;;;;;5093841;28;19954;-75
2022/11/13 00:46:18;;;;;;;;;;;13.90;99.90;;;;;;5092938;28;19964;-76
2022/11/13 00:48:43;;;;;;;;;;;13.90;99.90;;;;;;5093830;28;19912;-76
2022/11/13 00:51:09;;;;;;;;;;;13.90;99.90;;;;;;5093520;28;19954;-76
2022/11/13 00:53:34;;;;;;;;;;;13.90;99.90;;;;;;5093097;28;20138;-75
2022/11/13 00:56:00;;;;;;;;;;;13.90;99.90;;;;;;5093676;28;19999;-76
2022/11/13 00:58:26;;;;;;;;;;;13.90;99.90;;;;;;5091758;28;19931;-76
2022/11/13 01:00:51;;;;;;;;;;;13.80;99.90;;;;;;5092940;28;19994;-75
2022/11/13 01:03:17;;;;;;;;;;;13.80;99.90;;;;;;5093860;28;19913;-76
2022/11/13 01:05:44;;;;;;;;;;;13.80;99.90;;;;;;5093567;28;20277;-73
2022/11/13 01:08:10;;;;;;;;;;;13.80;99.90;;;;;;5093181;28;20343;-76
2022/11/13 01:10:38;;;;;;;;;;;13.80;99.90;;;;;;5092919;28;20395;-76
2022/11/13 01:13:03;;;;;;;;;;;13.80;99.90;;;;;;5093356;28;19908;-75
2022/11/13 01:15:29;;;;;;;;;;;13.80;99.90;;;;;;5092665;28;20006;-75
2022/11/13 01:17:55;;;;;;;;;;;13.80;99.90;;;;;;5093522;28;19909;-75
2022/11/13 01:20:21;;;;;;;;;;;13.80;99.90;;;;;;5092556;28;19998;-75
2022/11/13 01:22:46;;;;;;;;;;;13.70;99.90;;;;;;5093060;28;19958;-76
2022/11/13 01:25:12;;;;;;;;;;;13.80;99.90;;;;;;5091896;28;19971;-75
2022/11/13 01:27:37;;;;;;;;;;;13.80;99.90;;;;;;5092493;28;19915;-75
2022/11/13 01:30:03;;;;;;;;;;;13.70;99.90;;;;;;5093090;28;20346;-75
2022/11/13 01:32:29;;;;;;;;;;;13.70;99.90;;;;;;5092585;28;19931;-75
2022/11/13 01:34:55;;;;;;;;;;;13.70;99.90;;;;;;5091615;28;20387;-74
2022/11/13 01:37:20;;;;;;;;;;;13.70;99.90;;;;;;5091046;28;19912;-75
2022/11/13 01:39:46;;;;;;;;;;;13.70;99.90;;;;;;5092938;28;19908;-75
2022/11/13 01:42:11;;;;;;;;;;;13.70;99.90;;;;;;5092932;28;19923;-75
2022/11/13 01:44:54;;;;;;;;;;;13.70;99.90;;;;;;5092487;28;20521;-75
2022/11/13 01:47:20;;;;;;;;;;;13.70;99.90;;;;;;5093803;28;19916;-76
2022/11/13 01:49:46;;;;;;;;;;;13.70;99.90;;;;;;5096050;28;20316;-75
2022/11/13 01:52:14;;;;;;;;;;;13.70;99.90;;;;;;5094792;28;19908;-75
2022/11/13 01:54:42;;;;;;;;;;;13.70;99.90;;;;;;5092450;28;19904;-76
2022/11/13 01:57:08;;;;;;;;;;;13.70;99.90;;;;;;5092952;28;19954;-76
2022/11/13 01:59:38;;;;;;;;;;;13.70;99.90;;;;;;5092395;28;19908;-76
2022/11/13 02:02:04;;;;;;;;;;;13.70;99.90;;;;;;5092785;28;19947;-76
2022/11/13 02:04:31;;;;;;;;;;;13.70;99.90;;;;;;5091769;28;20336;-76
2022/11/13 02:06:58;;;;;;;;;;;13.70;99.90;;;;;;5095874;28;20372;-76
2022/11/13 02:09:26;;;;;;;;;;;13.70;99.90;;;;;;5096680;28;19951;-76
2022/11/13 02:11:52;;;;;;;;;;;13.70;99.90;;;;;;5096926;28;19955;-76
2022/11/13 02:14:18;;;;;;;;;;;13.70;99.90;;;;;;5096810;28;19934;-76
2022/11/13 02:16:45;;;;;;;;;;;13.70;99.90;;;;;;5095879;28;19915;-76
2022/11/13 02:19:18;;;;;;;;;;;13.70;99.90;;;;;;5096712;28;19915;-75
2022/11/13 02:21:49;;;;;;;;;;;13.70;99.90;;;;;;5095901;28;19908;-75
2022/11/13 02:24:15;;;;;;;;;;;13.70;99.90;;;;;;5096426;28;19908;-75
2022/11/13 02:26:41;;;;;;;;;;;13.70;99.90;;;;;;5094600;28;20517;-75
2022/11/13 02:29:06;;;;;;;;;;;13.70;99.90;;;;;;5096475;28;20154;-75
2022/11/13 02:31:32;;;;;;;;;;;13.70;99.90;;;;;;5095483;28;20045;-75
2022/11/13 02:34:00;;;;;;;;;;;13.70;99.90;;;;;;5096444;28;19908;-75
2022/11/13 02:36:26;;;;;;;;;;;13.70;99.90;;;;;;5096104;28;20266;-76
2022/11/13 02:38:53;;;;;;;;;;;13.80;99.90;;;;;;5096540;28;19914;-75
2022/11/13 02:41:18;;;;;;;;;;;13.80;99.90;;;;;;5096218;28;19965;-75
2022/11/13 02:43:44;;;;;;;;;;;13.80;99.90;;;;;;5095454;28;19947;-75
2022/11/13 02:46:09;;;;;;;;;;;13.90;99.90;;;;;;5096320;28;20360;-75
2022/11/13 02:48:35;;;;;;;;;;;13.90;99.90;;;;;;5095628;28;19912;-76
2022/11/13 02:51:00;;;;;;;;;;;13.90;99.90;;;;;;5096208;28;19999;-75
2022/11/13 02:53:26;;;;;;;;;;;13.90;99.90;;;;;;5095580;28;19913;-76
2022/11/13 02:55:51;;;;;;;;;;;13.90;99.90;;;;;;5096042;28;19909;-76
2022/11/13 02:58:17;;;;;;;;;;;13.90;99.90;;;;;;5095938;28;19919;-75
2022/11/13 03:00:43;;;;;;;;;;;13.90;99.90;;;;;;5093848;28;19908;-75
2022/11/13 03:03:08;;;;;;;;;;;14.00;99.90;;;;;;5095945;28;19914;-75
2022/11/13 03:05:34;;;;;;;;;;;14.00;99.90;;;;;;5095065;28;19920;-75
2022/11/13 03:07:59;;;;;;;;;;;14.10;99.90;;;;;;5095612;28;20273;-75
2022/11/13 03:10:25;;;;;;;;;;;14.10;99.90;;;;;;5095417;28;19995;-76
2022/11/13 03:12:50;;;;;;;;;;;14.10;99.90;;;;;;5094289;28;19915;-76
2022/11/13 03:15:16;;;;;;;;;;;14.10;99.90;;;;;;5095372;28;19915;-76
2022/11/13 03:17:42;;;;;;;;;;;14.10;99.90;;;;;;5093386;28;19908;-76
2022/11/13 03:20:07;;;;;;;;;;;14.10;99.90;;;;;;5095652;28;19992;-75
2022/11/13 03:22:33;;;;;;;;;;;14.10;99.90;;;;;;5094931;28;19908;-76
2022/11/13 03:24:59;;;;;;;;;;;14.00;99.90;;;;;;5095193;28;19908;-76
2022/11/13 03:27:24;;;;;;;;;;;14.00;99.90;;;;;;5095283;28;19908;-76
2022/11/13 03:29:50;;;;;;;;;;;14.00;99.90;;;;;;5093824;28;20352;-76
2022/11/13 03:32:15;;;;;;;;;;;13.90;99.90;;;;;;5094078;28;19916;-75
2022/11/13 03:34:41;;;;;;;;;;;14.00;99.90;;;;;;5097729;28;20007;-75
2022/11/13 03:37:07;;;;;;;;;;;14.00;99.90;;;;;;5100154;28;20010;-74
2022/11/13 03:39:32;;;;;;;;;;;14.00;99.90;;;;;;5095493;28;19962;-75
2022/11/13 03:41:58;;;;;;;;;;;14.00;99.90;;;;;;5095095;28;19915;-74
2022/11/13 03:44:23;;;;;;;;;;;14.00;99.90;;;;;;5094878;28;19908;-75
2022/11/13 03:46:49;;;;;;;;;;;14.00;99.90;;;;;;5094315;28;20338;-76
2022/11/13 03:49:14;;;;;;;;;;;14.00;99.90;;;;;;5094872;28;19946;-75
2022/11/13 03:51:40;;;;;;;;;;;14.00;99.90;;;;;;5094102;28;19915;-75
2022/11/13 03:54:05;;;;;;;;;;;14.00;99.90;;;;;;5095086;28;19908;-75
2022/11/13 03:56:31;;;;;;;;;;;14.00;99.90;;;;;;5094214;28;20347;-75
2022/11/13 03:58:57;;;;;;;;;;;14.00;99.90;;;;;;5095129;28;19912;-75
2022/11/13 04:01:22;;;;;;;;;;;13.90;99.90;;;;;;5093254;28;19957;-75
2022/11/13 04:03:48;;;;;;;;;;;13.90;99.90;;;;;;5094236;28;19915;-75
2022/11/13 04:06:13;;;;;;;;;;;13.90;99.90;;;;;;5094516;28;20303;-75
2022/11/13 04:08:39;;;;;;;;;;;13.90;99.90;;;;;;5093540;28;19909;-75
2022/11/13 04:11:14;;;;;;;;;;;14.00;99.90;;;;;;5094531;28;19914;-75
2022/11/13 04:13:39;;;;;;;;;;;14.00;99.90;;;;;;5093879;28;19966;-74
2022/11/13 04:16:05;;;;;;;;;;;14.10;99.90;;;;;;5094208;28;19908;-74
2022/11/13 04:18:31;;;;;;;;;;;14.10;99.90;;;;;;5093746;28;19908;-76
2022/11/13 04:21:00;;;;;;;;;;;14.10;99.90;;;;;;5094193;28;19931;-75
2022/11/13 04:23:27;;;;;;;;;;;14.10;99.90;;;;;;5092852;28;20369;-75
2022/11/13 04:25:52;;;;;;;;;;;14.10;99.90;;;;;;5093664;28;19923;-75
2022/11/13 04:28:18;;;;;;;;;;;14.20;99.90;;;;;;5092456;28;19908;-75
2022/11/13 04:30:43;;;;;;;;;;;14.20;99.90;;;;;;5093972;28;19914;-76
2022/11/13 04:33:09;;;;;;;;;;;14.20;99.90;;;;;;5092892;28;20273;-74
2022/11/13 04:35:34;;;;;;;;;;;14.20;99.90;;;;;;5093602;28;19908;-75
2022/11/13 04:38:00;;;;;;;;;;;14.20;99.90;;;;;;5093803;28;19912;-75
2022/11/13 04:40:25;;;;;;;;;;;14.20;99.90;;;;;;5093714;28;19908;-75
2022/11/13 04:42:51;;;;;;;;;;;14.20;99.90;;;;;;5093098;28;20228;-75
2022/11/13 04:45:17;;;;;;;;;;;14.20;99.90;;;;;;5093645;28;19924;-75
2022/11/13 04:47:43;;;;;;;;;;;14.30;99.90;;;;;;5092723;28;20472;-75
2022/11/13 04:50:09;;;;;;;;;;;14.30;99.90;;;;;;5092575;28;19909;-75
2022/11/13 04:52:34;;;;;;;;;;;14.20;99.90;;;;;;5093235;28;19998;-75
2022/11/13 04:55:00;;;;;;;;;;;14.30;99.90;;;;;;5093346;28;19908;-75
2022/11/13 04:57:26;;;;;;;;;;;14.20;99.90;;;;;;5093527;28;19969;-76
2022/11/13 04:59:51;;;;;;;;;;;14.30;99.90;;;;;;5093174;28;19983;-76
2022/11/13 05:02:17;;;;;;;;;;;14.30;99.90;;;;;;5093381;28;19927;-75
2022/11/13 05:04:43;;;;;;;;;;;14.30;99.90;;;;;;5092835;28;20014;-75
2022/11/13 05:07:08;;;;;;;;;;;14.20;99.90;;;;;;5093213;28;20353;-75
2022/11/13 05:09:35;;;;;;;;;;;14.20;99.90;;;;;;5090742;28;20466;-76
2022/11/13 05:12:01;;;;;;;;;;;14.20;99.90;;;;;;5093523;28;19908;-76
2022/11/13 05:14:27;;;;;;;;;;;14.30;99.90;;;;;;5093431;28;19912;-75
2022/11/13 05:16:52;;;;;;;;;;;14.30;99.90;;;;;;5091385;28;19927;-75
2022/11/13 05:19:18;;;;;;;;;;;14.30;99.90;;;;;;5092274;28;19916;-75
2022/11/13 05:21:43;;;;;;;;;;;14.30;99.90;;;;;;5091355;28;19908;-75
2022/11/13 05:24:10;;;;;;;;;;;14.30;99.90;;;;;;5092918;28;20029;-75
2022/11/13 05:26:36;;;;;;;;;;;14.30;99.90;;;;;;5092339;28;20285;-75
2022/11/13 05:29:02;;;;;;;;;;;14.40;99.90;;;;;;5092170;28;19912;-75
2022/11/13 05:31:28;;;;;;;;;;;14.40;99.90;;;;;;5092967;28;19961;-75
2022/11/13 05:33:53;;;;;;;;;;;14.40;99.90;;;;;;5092294;28;19961;-76
2022/11/13 05:36:19;;;;;;;;;;;14.40;99.90;;;;;;5093413;28;20293;-75
2022/11/13 05:38:45;;;;;;;;;;;14.30;99.90;;;;;;5093851;28;20269;-75
2022/11/13 05:41:18;;;;;;;;;;;14.30;99.90;;;;;;5092948;28;20301;-75
2022/11/13 05:43:43;;;;;;;;;;;14.30;99.90;;;;;;5093629;28;19969;-75
2022/11/13 05:46:11;;;;;;;;;;;14.30;99.90;;;;;;5126860;28;20366;-75
2022/11/13 05:48:37;;;;;;;;;;;14.30;99.90;;;;;;5093755;28;20353;-76
2022/11/13 05:51:07;;;;;;;;;;;14.30;99.90;;;;;;5092598;28;19936;-75
2022/11/13 05:53:34;;;;;;;;;;;14.30;99.90;;;;;;5092876;28;19915;-76
2022/11/13 05:56:00;;;;;;;;;;;14.30;99.90;;;;;;5092256;28;19931;-75
2022/11/13 05:58:26;;;;;;;;;;;14.30;99.90;;;;;;5092962;28;19908;-75
2022/11/13 06:00:52;;;;;;;;;;;14.30;99.90;;;;;;5091877;28;19915;-75
2022/11/13 06:03:18;;;;;;;;;;;14.40;99.90;;;;;;5092817;28;19912;-75
2022/11/13 06:05:43;;;;;;;;;;;14.40;99.90;;;;;;5091700;28;19920;-76
2022/11/13 06:08:09;;;;;;;;;;;14.40;99.90;;;;;;5091465;28;19986;-76
2022/11/13 06:10:34;;;;;;;;;;;14.40;99.90;;;;;;5093079;28;19909;-74
2022/11/13 06:13:00;;;;;;;;;;;14.50;99.90;;;;;;5091970;28;19915;-76
2022/11/13 06:15:25;;;;;;;;;;;14.50;99.90;;;;;;5092412;28;19912;-76
2022/11/13 06:17:51;;;;;;;;;;;14.50;99.90;;;;;;5090438;28;19908;-75
2022/11/13 06:20:16;;;;;;;;;;;14.50;99.90;;;;;;5091232;28;19918;-75
2022/11/13 06:22:42;;;;;;;;;;;14.50;99.90;;;;;;5092394;28;19909;-76
2022/11/13 06:25:08;;;;;;;;;;;14.50;99.90;;;;;;5092646;28;20285;-76
2022/11/13 06:27:33;;;;;;;;;;;14.50;99.90;;;;;;5092176;28;19931;-75
2022/11/13 06:29:59;;;;;;;;;;;14.50;99.90;;;;;;5092132;28;19909;-75
2022/11/13 06:32:24;;;;;;;;;;;14.50;99.90;;;;;;5092442;28;20273;-76
2022/11/13 06:34:50;;;;;;;;;;;14.50;99.90;;;;;;5092031;28;19956;-76
2022/11/13 06:37:15;;;;;;;;;;;14.50;99.90;;;;;;5092121;28;19934;-76
2022/11/13 06:39:41;;;;;;;;;;;14.50;99.90;;;;;;5092397;28;19909;-75
2022/11/13 06:42:06;;;;;;;;;;;14.50;99.90;;;;;;5092193;28;19934;-75
2022/11/13 06:44:32;;;;;;;;;;;14.50;99.90;;;;;;5091262;28;19935;-75
2022/11/13 06:46:58;;;;;;;;;;;14.50;99.90;;;;;;5091812;28;19969;-76
2022/11/13 06:49:23;;;;;;;;;;;14.50;99.90;;;;;;5092345;28;20380;-75
2022/11/13 06:51:49;;;;;;;;;;;14.50;99.90;;;;;;5092907;28;20282;-75
2022/11/13 06:54:14;;;;;;;;;;;14.50;99.90;;;;;;5094789;28;19957;-75
2022/11/13 06:56:44;;;;;;;;;;;14.40;99.90;;;;;;5095450;28;19954;-75
2022/11/13 06:59:10;;;;;;;;;;;14.50;99.90;;;;;;5095693;28;19908;-75
2022/11/13 07:01:35;;;;;;;;;;;14.50;99.90;;;;;;5096272;28;19908;-76
2022/11/13 07:04:01;;;;;;;;;;;14.50;99.90;;;;;;5094925;28;19911;-75
2022/11/13 07:06:26;;;;;;;;;;;14.50;99.90;;;;;;5095865;28;20337;-75
2022/11/13 07:08:52;;;;;;;;;;;14.50;99.90;;;;;;5094931;28;19908;-76
2022/11/13 07:11:19;;;;;;;;;;;14.50;99.90;;;;;;5095931;28;20261;-75
2022/11/13 07:13:44;;;;;;;;;;;14.40;99.90;;;;;;5093614;28;19936;-75
2022/11/13 07:16:11;;;;;;;;;;;14.50;99.90;;;;;;5095733;28;20445;-75
2022/11/13 07:18:36;;;;;;;;;;;14.50;99.90;;;;;;5095581;28;19951;-75
2022/11/13 07:21:04;;;;;;;;;;;14.50;99.90;;;;;;5094295;28;19947;-76
2022/11/13 07:23:29;;;;;;;;;;;14.40;99.90;;;;;;5095512;28;19908;-76
2022/11/13 07:25:55;;;;;;;;;;;14.40;99.90;;;;;;5094596;28;19923;-76
2022/11/13 07:28:21;;;;;;;;;;;14.40;99.90;;;;;;5095486;28;19908;-76
2022/11/13 07:30:46;;;;;;;;;;;14.40;99.90;;;;;;5095073;28;19912;-76
2022/11/13 07:33:12;;;;;;;;;;;14.30;99.90;;;;;;5094992;28;20260;-76
2022/11/13 07:35:37;;;;;;;;;;;14.40;99.90;;;;;;5095552;28;19908;-76
2022/11/13 07:38:03;;;;;;;;;;;14.30;99.90;;;;;;5094461;28;19904;-76
2022/11/13 07:40:28;;;;;;;;;;;14.30;99.90;;;;;;5094770;28;19987;-76
2022/11/13 07:42:58;;;;;;;;;;;14.30;99.90;;;;;;5093306;28;19953;-76
2022/11/13 07:45:24;;;;;;;;;;;14.30;99.90;;;;;;5094967;28;19927;-75
2022/11/13 07:47:50;;;;;;;;;;;14.30;99.90;;;;;;5094262;28;19912;-76
2022/11/13 07:50:16;;;;;;;;;;;14.30;99.90;;;;;;5094789;28;19953;-76
2022/11/13 07:52:41;;;;;;;;;;;14.30;99.90;;;;;;5094973;28;20234;-76
2022/11/13 07:55:07;;;;;;;;;;;14.30;99.90;;;;;;5094637;28;20032;-75
2022/11/13 07:57:33;;;;;;;;;;;14.30;99.90;;;;;;5094288;28;19916;-75
2022/11/13 07:59:58;;;;;;;;;;;14.30;99.90;;;;;;5094129;28;20246;-76
2022/11/13 08:02:24;;;;;;;;;;;14.30;99.90;;;;;;5093949;28;19931;-76
2022/11/13 08:04:49;;;;;;;;;;;14.30;99.90;;;;;;5093173;28;19915;-75
2022/11/13 08:07:15;;;;;;;;;;;14.30;99.90;;;;;;5093955;28;20289;-75
2022/11/13 08:09:40;;;;;;;;;;;14.30;99.90;;;;;;5094873;28;19912;-75
2022/11/13 08:12:06;;;;;;;;;;;14.30;99.90;;;;;;5092205;28;19904;-76
2022/11/13 08:14:31;;;;;;;;;;;14.30;99.90;;;;;;5094699;28;19935;-74
2022/11/13 08:16:57;;;;;;;;;;;14.40;99.90;;;;;;5093409;28;19918;-75
2022/11/13 08:19:23;;;;;;;;;;;14.40;99.90;;;;;;5094182;28;20306;-75
2022/11/13 08:21:48;;;;;;;;;;;14.40;99.90;;;;;;5092459;28;19916;-76
2022/11/13 08:24:14;;;;;;;;;;;14.40;99.90;;;;;;5095561;28;20280;-76
2022/11/13 08:26:39;;;;;;;;;;;14.40;99.90;;;;;;5093922;28;20010;-76
2022/11/13 08:29:05;;;;;;;;;;;14.40;99.90;;;;;;5093613;28;19980;-77
2022/11/13 08:31:30;;;;;;;;;;;14.40;99.90;;;;;;5094171;28;19908;-75
2022/11/13 08:33:56;;;;;;;;;;;14.50;99.90;;;;;;5093452;28;19914;-75
2022/11/13 08:36:22;;;;;;;;;;;14.50;99.90;;;;;;5094122;28;19908;-75
2022/11/13 08:38:47;;;;;;;;;;;14.50;99.90;;;;;;5092313;28;19912;-75
2022/11/13 08:41:13;;;;;;;;;;;14.50;99.90;;;;;;5092466;28;19995;-75
2022/11/13 08:43:38;;;;;;;;;;;14.50;99.90;;;;;;5092677;28;19930;-75
2022/11/13 08:46:04;;;;;;;;;;;14.60;99.90;;;;;;5093207;28;19934;-75
2022/11/13 08:48:30;;;;;;;;;;;14.60;99.90;;;;;;5093869;28;19919;-76
2022/11/13 08:50:56;;;;;;;;;;;14.60;99.90;;;;;;5093385;28;19931;-76
2022/11/13 08:53:22;;;;;;;;;;;14.60;99.90;;;;;;5093422;28;19908;-75
2022/11/13 08:55:48;;;;;;;;;;;14.70;99.90;;;;;;5092412;28;19918;-76
2022/11/13 08:58:13;;;;;;;;;;;14.70;99.90;;;;;;5092916;28;19964;-76
2022/11/13 09:00:39;;;;;;;;;;;14.80;99.90;;;;;;5093535;28;20276;-76
2022/11/13 09:03:05;;;;;;;;;;;14.80;99.90;;;;;;5092956;28;19908;-75
2022/11/13 09:05:30;;;;;;;;;;;14.80;99.90;;;;;;5093395;28;20369;-75
2022/11/13 09:07:57;;;;;;;;;;;14.80;99.90;;;;;;5093065;28;19908;-74
2022/11/13 09:10:23;;;;;;;;;;;14.80;99.90;;;;;;5093614;28;19908;-76
2022/11/13 09:12:53;;;;;;;;;;;14.90;99.90;;;;;;5093618;28;19915;-76
2022/11/13 09:15:19;;;;;;;;;;;14.80;99.90;;;;;;5093622;28;19908;-75
2022/11/13 09:17:45;;;;;;;;;;;14.80;99.90;;;;;;5093094;28;20414;-75
2022/11/13 09:20:10;;;;;;;;;;;14.90;99.90;;;;;;5092618;28;19912;-75
2022/11/13 09:22:36;;;;;;;;;;;14.90;99.90;;;;;;5092660;28;19909;-73
2022/11/13 09:25:01;;;;;;;;;;;14.90;99.90;;;;;;5092638;28;19952;-75
2022/11/13 09:27:27;;;;;;;;;;;14.90;99.90;;;;;;5092729;28;20015;-76
2022/11/13 09:29:52;;;;;;;;;;;15.00;99.90;;;;;;5092346;28;19915;-75
2022/11/13 09:32:18;;;;;;;;;;;15.10;99.90;;;;;;5093078;28;19969;-75
2022/11/13 09:34:44;;;;;;;;;;;15.10;99.90;;;;;;5093398;28;19931;-76
2022/11/13 09:37:09;;;;;;;;;;;15.20;99.90;;;;;;5091305;28;19909;-76
2022/11/13 09:39:35;;;;;;;;;;;15.20;99.90;;;;;;5092671;28;19908;-76
2022/11/13 09:42:16;;;;;;;;;;;15.30;99.90;;;;;;5091262;28;19939;-74
2022/11/13 09:44:49;;;;;;;;;;;15.40;99.90;;;;;;5092669;28;19908;-74
2022/11/13 09:47:30;;;;;;;;;;;15.40;99.90;;;;;;5092273;28;19916;-76
2022/11/13 09:50:25;;;;;;;;;;;15.50;99.90;;;;;;5092783;28;19940;-76
2022/11/13 09:52:52;;;;;;;;;;;15.50;99.90;;;;;;5083240;28;19958;-76
2022/11/13 09:55:19;;;;;;;;;;;15.50;99.90;;;;;;5092537;28;19912;-75
2022/11/13 09:57:48;;;;;;;;;;;15.50;99.90;;;;;;5092691;28;19961;-75
2022/11/13 10:00:13;;;;;;;;;;;15.60;99.90;;;;;;5092318;28;19904;-76
2022/11/13 10:02:43;;;;;;;;;;;15.60;99.90;;;;;;5092616;28;20007;-74
2022/11/13 10:05:17;;;;;;;;;;;15.50;99.90;;;;;;5091655;28;19920;-76
2022/11/13 10:07:52;;;;;;;;;;;15.50;99.90;;;;;;5092760;28;19916;-75
2022/11/13 10:10:28;;;;;;;;;;;15.50;99.90;;;;;;5091036;28;19970;-75
2022/11/13 10:12:55;;;;;;;;;;;15.50;99.90;;;;;;5092603;28;19912;-76
2022/11/13 10:15:20;;;;;;;;;;;15.50;99.90;;;;;;5093043;28;19908;-75
2022/11/13 10:17:52;;;;;;;;;;;15.50;99.90;;;;;;5091910;28;19915;-75
2022/11/13 10:20:21;;;;;;;;;;;15.50;99.90;;;;;;5092257;28;19912;-75
2022/11/13 10:22:51;;;;;;;;;;;15.50;99.90;;;;;;5092516;28;19915;-75
2022/11/13 10:25:18;;;;;;;;;;;15.50;99.90;;;;;;5091640;28;19915;-75
2022/11/13 10:27:47;;;;;;;;;;;15.60;99.90;;;;;;5094940;28;19912;-76
2022/11/13 10:30:16;;;;;;;;;;;15.60;99.90;;;;;;5095295;28;19916;-75
2022/11/13 10:32:43;;;;;;;;;;;15.60;99.90;;;;;;5096002;28;19961;-76
2022/11/13 10:35:11;;;;;;;;;;;15.60;99.90;;;;;;5095697;28;20433;-75
2022/11/13 10:37:40;;;;;;;;;;;15.70;99.90;;;;;;5096518;28;20456;-75
2022/11/13 10:40:06;;;;;;;;;;;15.70;99.90;;;;;;5095685;28;19951;-74
2022/11/13 10:42:36;;;;;;;;;;;15.70;99.90;;;;;;5095015;28;20265;-75
2022/11/13 10:45:02;;;;;;;;;;;15.70;99.90;;;;;;5095817;28;19908;-76
2022/11/13 10:47:30;;;;;;;;;;;15.70;99.90;;;;;;5096055;28;19957;-75
2022/11/13 10:49:55;;;;;;;;;;;15.70;99.90;;;;;;5095647;28;19965;-76
2022/11/13 10:52:23;;;;;;;;;;;15.80;99.90;;;;;;5096047;28;19908;-76
2022/11/13 10:54:48;;;;;;;;;;;15.70;99.90;;;;;;5096498;28;20269;-75
2022/11/13 10:57:27;;;;;;;;;;;15.80;99.90;;;;;;5095266;28;19908;-75
2022/11/13 10:59:52;;;;;;;;;;;15.80;99.90;;;;;;5095526;28;19908;-76
2022/11/13 11:02:20;;;;;;;;;;;15.80;99.90;;;;;;5095327;28;19920;-76
2022/11/13 11:04:46;;;;;;;;;;;15.80;99.90;;;;;;5095684;28;19908;-75
2022/11/13 11:07:19;;;;;;;;;;;15.80;99.90;;;;;;5094932;28;19912;-75
2022/11/13 11:09:46;;;;;;;;;;;15.80;99.90;;;;;;5095723;28;20379;-75
2022/11/13 11:12:19;;;;;;;;;;;15.80;99.90;;;;;;5094917;28;19915;-75
2022/11/13 11:14:53;;;;;;;;;;;15.80;99.90;;;;;;5096068;28;19962;-75
2022/11/13 11:17:21;;;;;;;;;;;15.80;99.90;;;;;;5094958;28;19951;-75
2022/11/13 11:19:50;;;;;;;;;;;15.90;99.90;;;;;;5095506;28;19915;-75
2022/11/13 11:22:18;;;;;;;;;;;15.90;99.90;;;;;;5094842;28;19915;-75
2022/11/13 11:24:49;;;;;;;;;;;15.90;99.90;;;;;;5095734;28;20246;-75
2022/11/13 11:27:40;;;;;;;;;;;15.90;99.90;;;;;;5094708;28;19912;-75
2022/11/13 11:30:16;;;;;;;;;;;16.00;99.90;;;;;;5069901;28;19912;-76
2022/11/13 11:33:01;;;;;;;;;;;16.00;99.90;;;;;;5093965;28;19958;-76
2022/11/13 11:35:42;;;;;;;;;;;16.00;99.90;;;;;;5095257;28;19916;-75
2022/11/13 11:38:08;;;;;;;;;;;16.00;99.90;;;;;;5093386;28;20343;-76
2022/11/13 11:40:38;;;;;;;;;;;16.00;99.90;;;;;;5095083;28;19969;-76
2022/11/13 11:43:04;;;;;;;;;;;16.00;99.90;;;;;;5094415;28;19914;-76
2022/11/13 11:45:32;;;;;;;;;;;16.00;99.90;;;;;;5094476;28;19912;-76
2022/11/13 11:47:59;;;;;;;;;;;16.10;99.90;;;;;;5093828;28;20253;-76
2022/11/13 11:50:48;;;;;;;;;;;16.10;99.90;;;;;;5093312;28;19921;-76
2022/11/13 11:53:23;;;;;;;;;;;16.10;99.90;;;;;;5088619;28;19990;-76
2022/11/13 11:55:54;;;;;;;;;;;16.10;99.90;;;;;;5094625;28;20353;-76
2022/11/13 11:58:35;;;;;;;;;;;16.10;99.90;;;;;;5094114;28;19923;-76
2022/11/13 12:01:05;;;;;;;;;;;16.10;99.90;;;;;;5094186;28;19911;-77
2022/11/13 12:03:57;;;;;;;;;;;16.10;99.90;;;;;;5094346;28;19915;-76
2022/11/13 12:06:23;;;;;;;;;;;16.10;99.90;;;;;;5089534;28;19971;-76
2022/11/13 12:08:53;;;;;;;;;;;16.10;99.90;;;;;;5094998;28;19954;-75
2022/11/13 12:11:18;;;;;;;;;;;16.10;99.90;;;;;;5094626;28;19908;-74
2022/11/13 12:13:51;;;;;;;;;;;16.10;99.90;;;;;;5094988;28;20250;-75
2022/11/13 12:16:36;;;;;;;;;;;16.10;99.90;;;;;;5094240;28;19916;-76
2022/11/13 12:19:03;;;;;;;;;;;16.10;99.90;;;;;;5094655;28;19966;-77
2022/11/13 12:21:36;;;;;;;;;;;16.10;99.90;;;;;;5094343;28;19947;-75
2022/11/13 12:24:08;;;;;;;;;;;16.10;99.90;;;;;;5093561;28;20273;-76
2022/11/13 12:26:36;;;;;;;;;;;16.10;99.90;;;;;;5092843;28;19916;-75
2022/11/13 12:29:12;;;;;;;;;;;16.10;99.90;;;;;;5093535;28;19915;-76
2022/11/13 12:31:47;;;;;;;;;;;16.20;99.90;;;;;;5094208;28;19912;-74
2022/11/13 12:34:18;;;;;;;;;;;16.20;99.90;;;;;;5093221;28;20277;-75
2022/11/13 12:36:44;;;;;;;;;;;16.30;99.90;;;;;;5093929;28;19908;-76
2022/11/13 12:39:16;;;;;;;;;;;16.30;99.90;;;;;;5093409;28;19931;-76
2022/11/13 12:41:47;;;;;;;;;;;16.30;99.90;;;;;;5093599;28;20289;-75
2022/11/13 12:44:19;;;;;;;;;;;16.30;99.90;;;;;;5093286;28;19915;-74
2022/11/13 12:46:45;;;;;;;;;;;16.30;99.90;;;;;;5093631;28;19923;-75
2022/11/13 12:49:34;;;;;;;;;;;16.30;99.90;;;;;;5091558;28;19990;-76
2022/11/13 12:52:04;;;;;;;;;;;16.30;99.90;;;;;;5087993;28;20268;-75
2022/11/13 12:54:36;;;;;;;;;;;16.40;99.90;;;;;;5093207;28;19916;-75
2022/11/13 12:57:14;;;;;;;;;;;16.40;99.90;;;;;;5093348;28;20249;-74
2022/11/13 12:59:41;;;;;;;;;;;16.40;99.90;;;;;;5092132;28;19908;-74
2022/11/13 13:02:07;;;;;;;;;;;16.40;99.90;;;;;;5092470;28;19908;-76
2022/11/13 13:04:32;;;;;;;;;;;16.40;99.90;;;;;;5093316;28;20250;-75
2022/11/13 13:07:01;;;;;;;;;;;16.40;99.90;;;;;;5093443;28;19948;-75
2022/11/13 13:09:26;;;;;;;;;;;16.40;99.90;;;;;;5092328;28;19955;-75
2022/11/13 13:12:01;;;;;;;;;;;16.40;99.90;;;;;;5092966;28;19951;-75
2022/11/13 13:14:26;;;;;;;;;;;16.40;99.90;;;;;;5091572;28;19969;-76
2022/11/13 13:17:03;;;;;;;;;;;16.50;99.90;;;;;;5092754;28;19912;-76
2022/11/13 13:19:29;;;;;;;;;;;16.60;99.90;;;;;;5091511;28;19908;-76
2022/11/13 13:21:55;;;;;;;;;;;16.60;99.90;;;;;;5091752;28;20004;-75
2022/11/13 13:24:31;;;;;;;;;;;16.60;99.90;;;;;;5092906;28;19955;-75
2022/11/13 13:26:58;;;;;;;;;;;16.60;99.90;;;;;;5093129;28;19978;-75
2022/11/13 13:29:25;;;;;;;;;;;16.60;99.90;;;;;;5092346;28;19914;-75
2022/11/13 13:32:00;;;;;;;;;;;16.60;99.90;;;;;;5093072;28;19916;-75
2022/11/13 13:34:25;;;;;;;;;;;16.60;99.90;;;;;;5092661;28;19912;-75
2022/11/13 13:37:02;;;;;;;;;;;16.60;99.90;;;;;;5093119;28;19973;-75
2022/11/13 13:39:27;;;;;;;;;;;16.50;99.90;;;;;;5092462;28;19908;-75
2022/11/13 13:41:56;;;;;;;;;;;16.50;99.90;;;;;;5092725;28;19908;-76
2022/11/13 13:44:36;;;;;;;;;;;16.50;99.90;;;;;;5092108;28;19955;-76
2022/11/13 13:47:05;;;;;;;;;;;16.40;99.90;;;;;;5092725;28;19932;-74
2022/11/13 13:49:31;;;;;;;;;;;16.40;99.90;;;;;;5092392;28;19999;-75
2022/11/13 13:51:57;;;;;;;;;;;16.40;99.90;;;;;;5093159;28;20410;-75
2022/11/13 13:54:29;;;;;;;;;;;16.40;99.90;;;;;;5092221;28;19909;-75
2022/11/13 13:56:55;;;;;;;;;;;16.40;99.90;;;;;;5092770;28;19908;-75
2022/11/13 13:59:33;;;;;;;;;;;16.30;99.90;;;;;;5092352;28;19908;-76
2022/11/13 14:01:59;;;;;;;;;;;16.30;99.90;;;;;;5094115;28;19998;-75
2022/11/13 14:04:26;;;;;;;;;;;16.30;99.90;;;;;;5096464;28;19908;-76
2022/11/13 14:06:55;;;;;;;;;;;16.30;99.90;;;;;;5096987;28;20011;-76
2022/11/13 14:09:22;;;;;;;;;;;16.20;99.90;;;;;;5096130;28;19908;-76
2022/11/13 14:11:55;;;;;;;;;;;16.20;99.90;;;;;;5096396;28;20436;-75
2022/11/13 14:14:22;;;;;;;;;;;16.20;99.90;;;;;;5096200;28;19908;-76
2022/11/13 14:16:52;;;;;;;;;;;16.20;99.90;;;;;;5096770;28;19965;-76